Adelma Beach, Washington
Current Conditions -  °F | °C
As of 4:56 AM on Thursday 18 Dec 2014 (Local Time) from KNUW Reporting Station
Overcast Overcast  
Wind Chill: 44°   Ceiling: 700
Heat Index: 48°   Visibility: 7mi
Dew Point: 43°   Wind: 8mph
Humidity: 83%   Direction: 130°SE
Pressure: 29.92"   Gusts: NA
Location:  48.026°N, 122.859°W
Report Text: KNUW 181256Z COR 13007KT 7SM FEW005 BKN007 OVC020 09/06 A2992 RMK AO2 SLP135 T00890061 $
Loading
Personal Weather Stations






























Interactive Weather Map New forecast layout! Learn more

10-Day Weather Forecast

Advertisements
Track Severe Weather on mobile